Time;durP1;ratioP1;P1;durP2;ratioP2;P2;SDS_P1;SDS_P2;PMS_P1;PMS_P2;Temp;Humidity;BMP_temperature;BMP_pressure;BME280_temperature;BME280_humidity;BME280_pressure;Samples;Min_cycle;Max_cycle;Signal;HPM_P1;HPM_P2
2022/06/14 00:03:12;;;;;;;7.07;1.75;;;13.80;93.50;;;;;;5028203;28;20379;-69
2022/06/14 00:05:38;;;;;;;6.13;1.70;;;13.80;93.50;;;;;;5045345;28;20037;-69
2022/06/14 00:08:04;;;;;;;6.95;1.92;;;13.70;93.60;;;;;;5045976;28;20241;-69
2022/06/14 00:10:29;;;;;;;6.45;1.63;;;13.70;93.70;;;;;;5046828;28;20021;-69
2022/06/14 00:12:55;;;;;;;4.35;1.50;;;13.70;93.70;;;;;;5045736;28;20068;-69
2022/06/14 00:15:21;;;;;;;8.07;2.38;;;13.70;93.70;;;;;;5045234;28;20213;-69
2022/06/14 00:17:47;;;;;;;8.25;1.80;;;13.70;93.80;;;;;;5045482;28;20036;-68
2022/06/14 00:20:13;;;;;;;4.75;1.83;;;13.70;93.90;;;;;;5046602;28;20092;-69
2022/06/14 00:22:40;;;;;;;6.07;1.90;;;13.60;93.90;;;;;;5046677;28;20055;-69
2022/06/14 00:25:06;;;;;;;7.30;1.98;;;13.60;94.00;;;;;;5046396;28;20036;-68
2022/06/14 00:27:32;;;;;;;9.00;1.98;;;13.60;94.10;;;;;;5046518;28;20263;-69
2022/06/14 00:29:57;;;;;;;7.13;1.80;;;13.60;94.10;;;;;;5046576;28;20063;-69
2022/06/14 00:32:23;;;;;;;4.63;1.77;;;13.50;94.20;;;;;;5046272;28;20067;-69
2022/06/14 00:34:49;;;;;;;5.55;1.85;;;13.50;94.30;;;;;;5045046;28;20021;-69
2022/06/14 00:37:17;;;;;;;5.93;1.88;;;13.50;94.40;;;;;;5045062;28;20021;-69
2022/06/14 00:39:43;;;;;;;11.40;2.03;;;13.50;94.40;;;;;;5046227;28;20060;-69
2022/06/14 00:42:17;;;;;;;7.22;2.10;;;13.50;94.50;;;;;;5028556;28;20224;-69
2022/06/14 00:45:02;;;;;;;12.60;2.00;;;13.40;94.60;;;;;;5044588;28;20022;-69
2022/06/14 00:47:29;;;;;;;6.65;2.60;;;13.40;94.70;;;;;;5046129;28;20052;-69
2022/06/14 00:49:59;;;;;;;6.22;2.40;;;13.40;94.70;;;;;;5046107;28;20272;-69
2022/06/14 00:52:48;;;;;;;14.32;2.70;;;13.40;94.80;;;;;;5062039;28;20339;-69
2022/06/14 00:55:20;;;;;;;9.57;2.20;;;13.40;94.80;;;;;;5064730;28;20402;-69
2022/06/14 00:58:03;;;;;;;6.82;2.25;;;13.30;94.90;;;;;;5064680;28;20025;-69
2022/06/14 01:00:33;;;;;;;10.43;2.08;;;13.30;94.90;;;;;;5065782;28;20025;-69
2022/06/14 01:03:05;;;;;;;8.30;2.10;;;13.30;95.00;;;;;;5065755;28;20024;-69
2022/06/14 01:08:22;;;;;;;10.45;2.40;;;13.30;95.10;;;;;;5065113;28;20017;-69
2022/06/14 01:10:48;;;;;;;6.88;2.30;;;13.20;95.20;;;;;;5065792;28;20021;-69
2022/06/14 01:13:17;;;;;;;7.45;2.42;;;13.20;95.30;;;;;;5047653;28;20208;-69
2022/06/14 01:15:44;;;;;;;10.63;2.67;;;13.20;95.40;;;;;;5063176;28;20055;-69
2022/06/14 01:18:12;;;;;;;11.15;2.40;;;13.20;95.40;;;;;;5065246;28;20016;-69
2022/06/14 01:20:38;;;;;;;12.70;2.40;;;13.10;95.50;;;;;;5064473;28;20033;-69
2022/06/14 01:23:06;;;;;;;10.25;2.40;;;13.10;95.60;;;;;;5047647;28;20048;-69
2022/06/14 01:25:36;;;;;;;5.95;2.10;;;13.10;95.90;;;;;;5064159;28;20040;-69
2022/06/14 01:28:04;;;;;;;8.55;2.25;;;13.00;95.70;;;;;;5047478;28;20017;-69
2022/06/14 01:30:34;;;;;;;11.20;2.22;;;13.00;95.70;;;;;;5065517;28;20017;-69
2022/06/14 01:33:06;;;;;;;10.48;2.10;;;12.90;95.70;;;;;;5063829;28;20304;-69
2022/06/14 01:35:35;;;;;;;7.80;2.20;;;12.70;95.90;;;;;;5063231;28;20312;-69
2022/06/14 01:38:04;;;;;;;7.80;2.17;;;12.60;96.40;;;;;;5047234;28;20312;-69
2022/06/14 01:41:03;;;;;;;5.28;2.15;;;12.50;96.80;;;;;;5047820;28;20144;-69
2022/06/14 01:44:06;;;;;;;11.55;2.67;;;12.40;97.00;;;;;;5063865;28;20024;-69
2022/06/14 01:46:51;;;;;;;6.00;2.20;;;12.40;97.40;;;;;;5064171;28;20029;-69
2022/06/14 01:52:27;;;;;;;9.23;2.20;;;12.10;97.80;;;;;;5034673;28;20045;-69
2022/06/14 01:55:34;;;;;;;6.57;2.10;;;12.10;97.90;;;;;;5027300;28;20236;-69
2022/06/14 01:58:23;;;;;;;7.40;2.42;;;12.10;98.10;;;;;;5043541;28;20017;-69
2022/06/14 02:01:06;;;;;;;6.20;2.20;;;12.00;98.50;;;;;;5043886;28;20083;-69
2022/06/14 02:07:24;;;;;;;8.25;2.78;;;11.90;98.60;;;;;;5032519;28;20021;-68
2022/06/14 02:10:29;;;;;;;9.45;2.80;;;11.80;98.70;;;;;;5043570;28;20022;-69
2022/06/14 02:13:24;;;;;;;9.88;3.13;;;11.90;98.60;;;;;;5043573;28;20231;-68
2022/06/14 02:15:55;;;;;;;6.00;2.90;;;11.90;98.70;;;;;;5029180;28;20028;-68
2022/06/14 02:18:45;;;;;;;10.27;3.73;;;11.80;98.80;;;;;;5043666;28;20022;-69
2022/06/14 02:21:22;;;;;;;11.00;3.67;;;11.70;99.10;;;;;;5043599;28;20025;-68
2022/06/14 02:24:07;;;;;;;7.03;3.03;;;11.70;99.10;;;;;;5043615;28;20246;-68
2022/06/14 02:26:59;;;;;;;8.55;2.72;;;11.70;99.10;;;;;;5044464;28;20136;-69
2022/06/14 02:29:34;;;;;;;7.57;2.88;;;11.60;99.00;;;;;;5043151;28;20185;-69
2022/06/14 02:32:19;;;;;;;6.50;2.40;;;11.60;99.00;;;;;;5043130;28;20025;-69
2022/06/14 02:35:05;;;;;;;8.25;2.92;;;11.60;98.90;;;;;;5043038;28;20017;-68
2022/06/14 02:37:40;;;;;;;8.50;3.10;;;11.60;99.00;;;;;;5042766;28;20430;-68
2022/06/14 02:40:16;;;;;;;6.07;2.72;;;11.60;99.10;;;;;;5042875;28;20033;-69
2022/06/14 02:42:49;;;;;;;7.93;3.10;;;11.50;99.10;;;;;;5042909;28;20022;-68
2022/06/14 02:45:26;;;;;;;8.00;3.08;;;11.50;99.20;;;;;;5043060;28;20025;-68
2022/06/14 02:48:09;;;;;;;10.82;3.55;;;11.40;99.60;;;;;;5042614;28;20093;-69
2022/06/14 02:50:56;;;;;;;7.65;3.15;;;11.40;99.20;;;;;;5044998;28;20029;-69
2022/06/14 02:53:29;;;;;;;6.72;2.50;;;11.40;99.20;;;;;;5063598;28;20021;-68
2022/06/14 02:56:14;;;;;;;7.60;2.60;;;11.40;99.20;;;;;;5062556;28;20208;-69
2022/06/14 02:59:05;;;;;;;5.85;2.78;;;11.40;99.20;;;;;;5063597;28;20235;-69
2022/06/14 03:01:42;;;;;;;12.75;3.20;;;11.30;99.30;;;;;;5062299;28;20312;-69
2022/06/14 03:04:31;;;;;;;5.13;2.55;;;11.20;99.60;;;;;;5063133;28;20248;-69
2022/06/14 03:07:11;;;;;;;9.82;2.88;;;11.20;99.60;;;;;;5049373;28;20025;-69
2022/06/14 03:09:39;;;;;;;6.95;2.65;;;11.10;99.60;;;;;;5063402;28;20224;-69
2022/06/14 03:12:17;;;;;;;11.20;2.90;;;11.10;99.60;;;;;;5063301;28;20025;-69
2022/06/14 03:15:14;;;;;;;9.45;2.83;;;11.10;99.60;;;;;;5045145;28;20043;-69
2022/06/14 03:18:19;;;;;;;7.15;2.75;;;11.20;99.60;;;;;;5062614;28;20088;-69
2022/06/14 03:21:12;;;;;;;9.55;2.55;;;11.20;99.40;;;;;;5037438;28;20029;-69
2022/06/14 03:23:48;;;;;;;10.70;2.85;;;11.20;99.40;;;;;;5062169;28;20124;-69
2022/06/14 03:26:25;;;;;;;4.20;2.15;;;11.10;99.40;;;;;;5029599;28;20052;-69
2022/06/14 03:29:09;;;;;;;7.72;2.95;;;11.10;99.50;;;;;;5062040;28;20029;-68
2022/06/14 03:32:02;;;;;;;7.82;2.58;;;11.00;99.90;;;;;;5062113;28;20025;-69
2022/06/14 03:34:41;;;;;;;8.40;3.42;;;11.00;99.80;;;;;;5062031;28;20372;-69
2022/06/14 03:37:08;;;;;;;5.85;2.90;;;11.00;99.80;;;;;;5027745;28;20017;-69
2022/06/14 03:39:39;;;;;;;6.18;2.47;;;10.90;99.80;;;;;;5046399;28;20332;-69
2022/06/14 03:42:09;;;;;;;5.93;2.63;;;10.90;99.90;;;;;;5067327;28;20025;-69
2022/06/14 03:44:35;;;;;;;8.13;2.60;;;10.80;99.90;;;;;;5049486;28;20048;-69
2022/06/14 03:47:23;;;;;;;8.55;3.00;;;10.80;99.90;;;;;;5067029;28;20032;-69
2022/06/14 03:49:59;;;;;;;10.60;3.10;;;10.80;99.90;;;;;;5033424;28;20021;-69
2022/06/14 03:52:51;;;;;;;6.88;2.78;;;10.70;99.90;;;;;;5032156;28;20053;-69
2022/06/14 03:55:57;;;;;;;3.50;2.58;;;10.70;99.90;;;;;;5045910;28;20221;-69
2022/06/14 03:58:50;;;;;;;9.93;2.97;;;10.60;99.90;;;;;;5046101;28;20064;-69
2022/06/14 04:01:21;;;;;;;6.15;2.95;;;10.60;99.90;;;;;;5046070;28;20036;-69
2022/06/14 04:04:13;;;;;;;9.95;2.78;;;10.50;99.90;;;;;;5045779;28;20308;-69
2022/06/14 04:06:59;;;;;;;;;;;10.60;99.90;;;;;;5046762;28;20022;-69
2022/06/14 04:10:04;;;;;;;8.15;3.15;;;10.60;99.90;;;;;;5045504;28;19908;-69
2022/06/14 04:13:01;;;;;;;9.10;2.78;;;10.60;99.90;;;;;;5032084;28;20025;-69
2022/06/14 04:15:49;;;;;;;8.15;3.15;;;10.70;99.90;;;;;;5031335;28;20056;-69
2022/06/14 04:18:46;;;;;;;12.45;3.10;;;10.70;99.90;;;;;;5045891;28;20318;-69
2022/06/14 04:21:36;;;;;;;15.63;3.53;;;10.70;99.90;;;;;;5045738;28;20033;-69
2022/06/14 04:24:41;;;;;;;21.73;3.88;;;10.80;99.90;;;;;;5045366;28;20136;-69
2022/06/14 04:27:47;;;;;;;16.73;3.83;;;10.80;99.90;;;;;;5031770;28;20059;-69
2022/06/14 04:30:20;;;;;;;9.23;3.00;;;10.80;99.90;;;;;;5045616;28;20312;-69
2022/06/14 04:33:00;;;;;;;11.23;2.85;;;10.80;99.90;;;;;;5046424;28;20048;-69
2022/06/14 04:35:48;;;;;;;15.88;3.63;;;10.90;99.90;;;;;;5046105;28;20025;-69
2022/06/14 04:38:35;;;;;;;8.95;2.80;;;11.20;99.90;;;;;;5044381;28;20084;-69
2022/06/14 04:41:07;;;;;;;8.85;2.90;;;11.40;99.90;;;;;;5047956;28;20109;-69
2022/06/14 04:43:41;;;;;;;6.47;2.78;;;11.60;99.40;;;;;;5045206;28;20091;-69
2022/06/14 04:46:17;;;;;;;8.95;2.88;;;11.90;98.90;;;;;;5044451;28;20113;-69
2022/06/14 04:49:09;;;;;;;9.05;2.95;;;12.20;98.70;;;;;;5046173;28;20076;-69
2022/06/14 04:51:47;;;;;;;9.52;2.40;;;12.40;98.10;;;;;;5055176;28;20029;-69
2022/06/14 04:54:38;;;;;;;7.50;3.03;;;12.60;97.30;;;;;;5066323;28;20045;-69
2022/06/14 04:57:11;;;;;;;7.60;2.55;;;12.80;96.90;;;;;;5065144;28;20021;-69
2022/06/14 04:59:57;;;;;;;6.57;2.92;;;13.00;96.60;;;;;;5065459;28;20067;-69
2022/06/14 05:02:30;;;;;;;5.97;2.35;;;13.30;96.00;;;;;;5065935;28;20035;-69
2022/06/14 05:05:01;;;;;;;8.57;2.60;;;13.50;95.60;;;;;;5065666;28;20021;-69
2022/06/14 05:07:34;;;;;;;8.85;2.38;;;13.60;95.10;;;;;;5064793;28;20027;-69
2022/06/14 05:10:22;;;;;;;6.60;2.33;;;13.90;94.80;;;;;;5065636;28;20028;-69
2022/06/14 05:12:54;;;;;;;12.48;2.88;;;14.10;94.20;;;;;;5051000;28;20027;-70
2022/06/14 05:15:38;;;;;;;7.68;2.17;;;14.30;93.60;;;;;;5064076;28;20033;-69
2022/06/14 05:18:11;;;;;;;8.30;2.60;;;14.40;93.40;;;;;;5064569;28;20307;-70
2022/06/14 05:20:48;;;;;;;13.75;2.75;;;14.60;92.80;;;;;;5065431;28;20021;-69
2022/06/14 05:23:37;;;;;;;7.05;2.22;;;14.60;92.60;;;;;;5064078;28;20399;-69
2022/06/14 05:26:29;;;;;;;7.18;2.60;;;14.60;92.50;;;;;;5034289;28;20024;-69
2022/06/14 05:29:22;;;;;;;8.52;2.75;;;14.30;92.20;;;;;;5064330;28;20044;-69
2022/06/14 05:32:28;;;;;;;5.43;2.35;;;14.00;92.60;;;;;;5064127;28;20029;-69
2022/06/14 05:35:20;;;;;;;6.25;2.30;;;13.80;92.90;;;;;;5038983;28;20375;-69
2022/06/14 05:37:54;;;;;;;4.68;2.20;;;13.70;93.10;;;;;;5062609;28;20071;-69
2022/06/14 05:41:00;;;;;;;8.68;2.30;;;13.40;93.50;;;;;;5064909;28;20143;-69
2022/06/14 05:43:39;;;;;;;6.72;2.90;;;13.30;93.70;;;;;;5038864;28;20021;-69
2022/06/14 05:46:10;;;;;;;5.10;2.30;;;13.30;93.80;;;;;;5064343;28;20025;-69
2022/06/14 05:48:46;;;;;;;6.22;2.00;;;13.20;93.70;;;;;;5063922;28;20021;-69
2022/06/14 05:51:14;;;;;;;9.70;2.22;;;13.20;93.90;;;;;;5043453;28;20045;-69
2022/06/14 05:53:46;;;;;;;6.90;2.58;;;13.10;94.10;;;;;;5044670;28;20017;-69
2022/06/14 05:56:20;;;;;;;6.78;2.03;;;13.10;94.20;;;;;;5044587;28;20025;-69
2022/06/14 05:58:55;;;;;;;5.28;1.60;;;13.00;94.20;;;;;;5043066;28;20068;-69
2022/06/14 06:01:32;;;;;;;7.50;2.22;;;13.00;94.20;;;;;;5044193;28;20339;-69
2022/06/14 06:04:19;;;;;;;7.60;1.88;;;13.10;94.10;;;;;;5042460;28;20021;-69
2022/06/14 06:06:48;;;;;;;7.13;1.60;;;13.30;94.00;;;;;;5043404;28;20053;-69
2022/06/14 06:09:23;;;;;;;5.93;1.50;;;13.20;93.60;;;;;;5044703;28;20354;-69
2022/06/14 06:11:57;;;;;;;6.47;1.65;;;13.30;93.40;;;;;;5044508;28;20014;-69
2022/06/14 06:14:39;;;;;;;7.10;1.90;;;13.40;93.20;;;;;;5043141;28;20017;-69
2022/06/14 06:17:20;;;;;;;11.23;1.88;;;13.30;93.10;;;;;;5044384;28;20316;-69
2022/06/14 06:20:26;;;;;;;4.70;1.65;;;13.30;92.90;;;;;;5043312;28;20029;-69
2022/06/14 06:23:24;;;;;;;6.72;1.50;;;13.30;92.90;;;;;;5029395;28;20030;-68
2022/06/14 06:25:53;;;;;;;8.70;1.38;;;13.40;92.80;;;;;;5029215;28;20092;-70
2022/06/14 06:28:34;;;;;;;9.18;1.83;;;13.50;92.80;;;;;;5042811;28;20025;-70
2022/06/14 06:31:22;;;;;;;6.33;1.63;;;13.60;92.80;;;;;;5026699;28;20194;-70
2022/06/14 06:33:51;;;;;;;9.18;1.67;;;13.70;92.70;;;;;;5043274;28;20262;-70
2022/06/14 06:36:50;;;;;;;8.27;1.75;;;13.70;92.50;;;;;;5026649;28;20017;-70
2022/06/14 06:39:26;;;;;;;5.97;1.75;;;13.80;92.40;;;;;;5027491;28;20021;-70
2022/06/14 06:41:57;;;;;;;5.07;1.40;;;13.90;92.40;;;;;;5042568;28;20033;-69
2022/06/14 06:45:01;;;;;;;6.38;1.35;;;14.00;92.20;;;;;;5026200;28;20216;-70
2022/06/14 06:47:38;;;;;;;13.13;1.90;;;14.10;92.00;;;;;;5043122;28;20052;-70
2022/06/14 06:50:26;;;;;;;7.90;1.77;;;14.10;91.80;;;;;;5043901;28;20024;-70
2022/06/14 06:53:12;;;;;;;4.80;1.55;;;14.20;91.80;;;;;;5048941;28;20358;-71
2022/06/14 06:55:46;;;;;;;7.00;1.65;;;14.30;92.20;;;;;;5028370;28;20029;-69
2022/06/14 06:58:21;;;;;;;9.65;1.50;;;14.40;92.00;;;;;;5046087;28;20020;-70
2022/06/14 07:00:48;;;;;;;6.45;1.80;;;14.50;92.10;;;;;;5063306;28;20024;-69
2022/06/14 07:03:23;;;;;;;8.40;2.00;;;14.50;91.50;;;;;;5055482;28;20014;-70
2022/06/14 07:05:52;;;;;;;6.43;1.85;;;14.60;91.50;;;;;;5042578;28;20025;-71
2022/06/14 07:08:34;;;;;;;3.97;1.95;;;14.60;91.50;;;;;;5041790;28;20021;-72
2022/06/14 07:11:04;;;;;;;6.70;1.80;;;14.70;91.40;;;;;;5042622;28;20021;-72
2022/06/14 07:13:44;;;;;;;4.78;1.60;;;14.80;91.20;;;;;;5041599;28;20190;-70
2022/06/14 07:16:19;;;;;;;8.23;1.85;;;14.90;91.40;;;;;;5043015;28;20040;-70
2022/06/14 07:18:52;;;;;;;4.75;1.58;;;15.00;91.20;;;;;;5025087;28;20021;-70
2022/06/14 07:21:26;;;;;;;5.60;1.50;;;15.10;91.00;;;;;;5042902;28;20103;-68
2022/06/14 07:23:59;;;;;;;3.42;1.10;;;15.30;91.00;;;;;;5041746;28;20033;-70
2022/06/14 07:26:35;;;;;;;4.60;1.25;;;15.40;90.70;;;;;;5026004;28;20304;-70
2022/06/14 07:29:11;;;;;;;5.95;1.92;;;15.50;90.50;;;;;;5041908;28;20083;-67
2022/06/14 07:32:04;;;;;;;6.05;1.50;;;15.50;90.50;;;;;;5042851;28;20096;-68
2022/06/14 07:34:31;;;;;;;7.00;1.70;;;15.60;90.70;;;;;;5009900;28;20155;-69
2022/06/14 07:37:09;;;;;;;7.57;1.45;;;15.80;90.60;;;;;;5054195;28;20048;-70
2022/06/14 07:39:59;;;;;;;9.32;1.38;;;15.90;90.30;;;;;;5043193;28;20091;-66
2022/06/14 07:42:51;;;;;;;9.25;1.85;;;16.00;90.00;;;;;;5041611;28;20095;-68
2022/06/14 07:45:20;;;;;;;;;;;16.20;89.60;;;;;;5041661;28;20022;-68
2022/06/14 07:47:55;;;;;;;5.25;1.50;;;16.40;89.40;;;;;;5042995;28;19932;-68
2022/06/14 07:50:40;;;;;;;2.42;1.10;;;16.50;88.50;;;;;;5041508;28;20071;-68
2022/06/14 07:53:12;;;;;;;8.98;1.45;;;16.50;87.50;;;;;;5042865;28;20033;-70
2022/06/14 07:55:46;;;;;;;3.42;1.30;;;16.70;87.80;;;;;;5042830;28;20029;-69
2022/06/14 07:58:31;;;;;;;5.97;1.10;;;16.80;86.30;;;;;;5041189;28;20041;-70
2022/06/14 08:01:07;;;;;;;4.35;1.00;;;16.90;86.10;;;;;;5042488;28;20029;-70
2022/06/14 08:03:43;;;;;;;3.85;1.02;;;17.10;85.10;;;;;;5041060;28;20022;-67
2022/06/14 08:06:31;;;;;;;4.93;1.30;;;17.10;85.10;;;;;;5041419;28;20267;-68
2022/06/14 08:09:07;;;;;;;10.07;1.45;;;17.20;85.30;;;;;;5042334;28;20029;-65
2022/06/14 08:11:54;;;;;;;3.17;1.10;;;17.30;85.10;;;;;;5042015;28;20070;-68
2022/06/14 08:14:45;;;;;;;3.80;1.30;;;17.60;84.40;;;;;;5033264;28;20052;-68
2022/06/14 08:17:17;;;;;;;4.97;1.55;;;17.70;84.80;;;;;;5041564;28;20037;-68
2022/06/14 08:19:45;;;;;;;;;;;17.90;84.50;;;;;;5041608;28;20090;-68
2022/06/14 08:22:18;;;;;;;4.07;1.30;;;18.00;84.10;;;;;;5024364;28;20061;-67
2022/06/14 08:24:49;;;;;;;7.45;1.80;;;18.20;83.80;;;;;;5042019;28;20056;-69
2022/06/14 08:27:37;;;;;;;6.25;1.73;;;18.30;83.40;;;;;;5045734;28;20212;-69
2022/06/14 08:30:12;;;;;;;6.00;1.33;;;18.60;82.70;;;;;;5030983;28;20096;-68
2022/06/14 08:32:54;;;;;;;7.05;1.20;;;18.70;81.80;;;;;;5044883;28;20108;-69
2022/06/14 08:35:44;;;;;;;3.80;1.35;;;18.60;82.00;;;;;;5044709;28;20033;-68
2022/06/14 08:38:15;;;;;;;5.70;1.85;;;18.60;81.80;;;;;;5045055;28;20096;-68
2022/06/14 08:41:16;;;;;;;5.40;1.35;;;18.40;82.30;;;;;;5059659;28;20056;-68
2022/06/14 08:43:45;;;;;;;8.98;1.67;;;18.30;82.50;;;;;;5044701;28;20017;-69
2022/06/14 08:46:26;;;;;;;10.50;1.98;;;18.40;83.30;;;;;;5044117;28;20320;-69
2022/06/14 08:49:32;;;;;;;5.50;1.55;;;18.50;83.40;;;;;;5045758;28;20029;-70
2022/06/14 08:52:28;;;;;;;5.57;1.77;;;18.40;82.90;;;;;;5038077;28;20084;-70
2022/06/14 08:55:06;;;;;;;4.65;1.48;;;18.40;83.20;;;;;;5044611;28;20029;-70
2022/06/14 08:58:08;;;;;;;5.90;1.50;;;18.50;83.10;;;;;;5045367;28;20025;-69
2022/06/14 09:01:07;;;;;;;7.20;2.17;;;18.70;82.50;;;;;;5016438;28;20236;-71
2022/06/14 09:04:07;;;;;;;5.40;1.88;;;18.80;82.00;;;;;;5044177;28;20060;-68
2022/06/14 09:06:54;;;;;;;8.43;2.42;;;18.70;82.30;;;;;;5030590;28;20018;-70
2022/06/14 09:10:00;;;;;;;9.32;2.30;;;18.50;83.20;;;;;;5044827;28;20213;-68
2022/06/14 09:12:55;;;;;;;6.65;2.15;;;18.50;83.10;;;;;;5033311;28;20064;-69
2022/06/14 09:15:55;;;;;;;6.72;2.20;;;18.70;82.80;;;;;;5029543;28;20026;-70
2022/06/14 09:19:01;;;;;;;7.32;2.40;;;18.60;82.70;;;;;;5030312;28;20314;-71
2022/06/14 09:21:43;;;;;;;5.47;2.10;;;18.70;83.10;;;;;;5018830;28;20026;-66
2022/06/14 09:24:33;;;;;;;7.38;2.13;;;18.90;82.70;;;;;;5028806;28;20036;-70
2022/06/14 09:27:26;;;;;;;6.20;2.20;;;19.00;82.30;;;;;;5030426;28;20075;-69
2022/06/14 09:30:20;;;;;;;8.75;2.17;;;19.20;81.60;;;;;;5043904;28;20044;-69
2022/06/14 09:33:18;;;;;;;5.85;1.98;;;19.40;81.00;;;;;;5043792;28;20017;-69
2022/06/14 09:36:23;;;;;;;4.70;2.00;;;19.60;80.40;;;;;;5043465;28;20155;-70
2022/06/14 09:39:16;;;;;;;4.50;2.08;;;19.60;80.10;;;;;;5032002;28;20031;-69
2022/06/14 09:42:12;;;;;;;6.93;2.30;;;19.70;80.10;;;;;;5041958;28;20060;-70
2022/06/14 09:45:18;;;;;;;8.20;2.47;;;19.60;80.20;;;;;;5043209;28;20084;-70
2022/06/14 09:48:21;;;;;;;7.95;2.15;;;19.70;80.60;;;;;;5032783;28;20049;-68
2022/06/14 09:51:27;;;;;;;5.30;1.90;;;19.80;80.40;;;;;;5035764;28;20020;-66
2022/06/14 09:54:32;;;;;;;5.45;2.20;;;19.90;79.90;;;;;;5043342;28;20054;-69
2022/06/14 09:57:24;;;;;;;7.63;1.90;;;19.90;79.50;;;;;;5033333;28;20022;-70
2022/06/14 10:00:09;;;;;;;;;;;20.10;79.80;;;;;;5064816;28;20312;-69
2022/06/14 10:03:08;;;;;;;4.00;1.42;;;20.50;79.10;;;;;;5049418;28;20011;-68
2022/06/14 10:06:13;;;;;;;8.50;2.10;;;21.00;74.20;;;;;;5063518;28;20035;-68
2022/06/14 10:09:04;;;;;;;7.70;1.50;;;21.20;75.30;;;;;;5049370;28;20020;-69
2022/06/14 10:11:56;;;;;;;3.53;1.55;;;21.40;71.90;;;;;;5063170;28;20088;-71
2022/06/14 10:15:02;;;;;;;8.18;1.80;;;21.30;73.80;;;;;;5063156;28;20032;-69
2022/06/14 10:18:04;;;;;;;5.25;1.92;;;21.40;73.80;;;;;;5048992;28;20255;-69
2022/06/14 10:20:54;;;;;;;4.65;1.60;;;21.40;73.20;;;;;;5051411;28;20032;-69
2022/06/14 10:23:51;;;;;;;3.83;1.33;;;21.00;72.80;;;;;;5062751;28;20084;-69
2022/06/14 10:29:53;;;;;;;7.63;1.90;;;20.90;75.00;;;;;;5046024;28;20017;-67
2022/06/14 10:32:58;;;;;;;5.82;1.75;;;21.00;74.70;;;;;;5029600;28;20285;-70
2022/06/14 10:35:53;;;;;;;4.10;1.77;;;20.90;75.00;;;;;;5042332;28;20057;-70
2022/06/14 10:38:35;;;;;;;5.57;2.13;;;20.60;75.50;;;;;;5042856;28;20139;-70
2022/06/14 10:41:08;;;;;;;4.22;1.88;;;20.40;75.60;;;;;;5063364;28;20304;-69
2022/06/14 10:43:50;;;;;;;9.25;2.47;;;20.50;75.50;;;;;;5061446;28;20059;-70
2022/06/14 10:46:25;;;;;;;6.85;2.22;;;20.30;76.20;;;;;;5061841;28;20396;-70
2022/06/14 10:49:09;;;;;;;16.45;2.05;;;20.20;76.40;;;;;;5058471;28;20075;-71
2022/06/14 10:52:03;;;;;;;4.85;1.70;;;20.10;77.00;;;;;;5048157;28;20252;-69
2022/06/14 10:55:08;;;;;;;7.00;1.77;;;20.10;76.60;;;;;;5042326;28;20049;-70
2022/06/14 10:58:02;;;;;;;13.38;2.45;;;20.20;75.70;;;;;;5042174;28;20310;-69
2022/06/14 11:00:48;;;;;;;3.63;1.70;;;20.30;75.70;;;;;;5042480;28;20327;-71
2022/06/14 11:03:50;;;;;;;3.03;1.50;;;20.50;74.30;;;;;;5043058;28;20044;-68
2022/06/14 11:06:35;;;;;;;;;;;20.60;73.30;;;;;;5053326;28;20132;-68
2022/06/14 11:09:22;;;;;;;4.28;1.95;;;20.80;73.00;;;;;;5056335;28;19908;-69
2022/06/14 11:12:00;;;;;;;4.30;1.60;;;21.10;72.90;;;;;;5043216;28;20018;-69
2022/06/14 11:14:51;;;;;;;3.72;1.73;;;21.30;72.60;;;;;;5042776;28;20311;-68
2022/06/14 11:17:48;;;;;;;4.53;1.50;;;21.30;71.90;;;;;;5041933;28;20309;-69
2022/06/14 11:20:48;;;;;;;3.53;1.40;;;21.50;71.80;;;;;;5042132;28;20022;-68
2022/06/14 11:23:53;;;;;;;4.93;1.67;;;21.30;71.70;;;;;;5055370;28;20291;-72
2022/06/14 11:26:37;;;;;;;6.40;1.60;;;21.20;72.20;;;;;;5036756;28;20025;-69
2022/06/14 11:29:15;;;;;;;6.00;1.42;;;21.30;72.40;;;;;;5049298;28;20040;-69
2022/06/14 11:31:57;;;;;;;3.22;1.70;;;21.40;72.00;;;;;;5044838;28;20033;-68
2022/06/14 11:34:37;;;;;;;4.32;1.50;;;21.60;71.60;;;;;;5045800;28;20084;-70
2022/06/14 11:37:37;;;;;;;2.88;1.50;;;21.70;72.40;;;;;;5057936;28;20308;-71
2022/06/14 11:40:24;;;;;;;3.33;1.23;;;21.70;71.70;;;;;;5042066;28;20252;-69
2022/06/14 11:43:31;;;;;;;4.43;1.67;;;21.70;71.30;;;;;;5046583;28;20093;-71
2022/06/14 11:46:13;;;;;;;4.32;1.55;;;21.70;71.10;;;;;;5027747;28;20021;-68
2022/06/14 11:49:01;;;;;;;2.70;1.52;;;21.80;70.30;;;;;;5041442;28;20216;-70
2022/06/14 11:52:06;;;;;;;3.88;1.38;;;21.90;69.90;;;;;;5034747;28;20559;-70
2022/06/14 11:55:00;;;;;;;11.75;2.25;;;21.80;70.50;;;;;;5041889;28;20030;-71
2022/06/14 11:57:50;;;;;;;3.33;1.52;;;21.90;70.10;;;;;;5041328;28;20286;-69
2022/06/14 12:00:27;;;;;;;3.87;1.57;;;21.80;70.30;;;;;;5041549;28;20152;-71
2022/06/14 12:03:33;;;;;;;7.82;1.35;;;21.90;70.70;;;;;;5037601;28;20045;-70
2022/06/14 12:06:12;;;;;;;4.40;1.50;;;22.00;70.40;;;;;;5048370;28;20275;-69
2022/06/14 12:09:01;;;;;;;3.08;1.25;;;22.10;69.60;;;;;;5046245;28;20021;-70
2022/06/14 12:11:31;;;;;;;5.35;1.50;;;22.00;68.70;;;;;;5046319;28;20092;-71
2022/06/14 12:14:37;;;;;;;4.00;1.67;;;22.10;69.20;;;;;;5045022;28;20037;-70
2022/06/14 12:17:42;;;;;;;5.30;2.00;;;22.20;69.10;;;;;;5042497;28;20227;-71
2022/06/14 12:20:12;;;;;;;3.70;1.60;;;22.60;69.00;;;;;;5046203;28;20085;-70
2022/06/14 12:23:10;;;;;;;3.30;1.40;;;22.70;68.80;;;;;;5044994;28;20362;-70
2022/06/14 12:29:00;;;;;;;9.50;1.92;;;22.70;67.90;;;;;;5045269;28;20028;-70
2022/06/14 12:31:49;;;;;;;3.80;1.38;;;22.60;68.70;;;;;;5044648;28;20100;-69
2022/06/14 12:34:23;;;;;;;6.18;1.52;;;22.60;68.30;;;;;;5044747;28;20017;-70
2022/06/14 12:37:13;;;;;;;6.80;1.60;;;22.60;68.70;;;;;;5044662;28;20022;-68
2022/06/14 12:39:58;;;;;;;3.13;1.30;;;22.70;67.50;;;;;;5045787;28;20059;-70
2022/06/14 12:42:56;;;;;;;4.78;1.40;;;22.90;67.60;;;;;;5044835;28;20031;-69
2022/06/14 12:45:27;;;;;;;4.93;1.77;;;22.80;66.80;;;;;;5029765;28;20081;-68
2022/06/14 12:48:32;;;;;;;5.10;1.75;;;22.80;66.80;;;;;;5045776;28;20288;-69
2022/06/14 12:51:19;;;;;;;5.43;1.65;;;22.80;67.70;;;;;;5044746;28;20025;-70
2022/06/14 12:54:08;;;;;;;2.80;1.50;;;22.90;66.90;;;;;;5045040;28;20021;-70
2022/06/14 12:57:14;;;;;;;2.38;1.30;;;22.80;66.20;;;;;;5049587;28;20021;-70
2022/06/14 13:00:03;;;;;;;2.85;1.40;;;22.80;67.50;;;;;;5033299;28;20057;-70
2022/06/14 13:02:53;;;;;;;3.67;1.30;;;22.80;65.70;;;;;;5034936;28;20021;-70
2022/06/14 13:05:24;;;;;;;6.25;1.50;;;22.80;66.00;;;;;;5055593;28;20017;-68
2022/06/14 13:08:30;;;;;;;5.40;1.63;;;22.80;66.50;;;;;;5063922;28;20031;-67
2022/06/14 13:11:21;;;;;;;3.25;1.42;;;22.90;67.00;;;;;;5066914;28;20021;-69
2022/06/14 13:14:09;;;;;;;4.72;1.50;;;23.00;66.30;;;;;;5047048;28;20037;-69
2022/06/14 13:17:14;;;;;;;3.25;1.70;;;22.90;66.60;;;;;;5030404;28;20029;-69
2022/06/14 13:19:50;;;;;;;6.80;1.90;;;22.70;68.40;;;;;;5036383;28;20057;-68
2022/06/14 13:22:43;;;;;;;3.70;1.60;;;22.80;68.50;;;;;;5045009;28;20028;-69
2022/06/14 13:25:41;;;;;;;4.47;1.52;;;22.80;67.50;;;;;;5044973;28;20029;-69
2022/06/14 13:28:22;;;;;;;6.68;1.50;;;22.80;67.50;;;;;;5043282;28;20067;-69
2022/06/14 13:31:20;;;;;;;6.10;1.70;;;22.80;67.50;;;;;;5043612;28;20039;-70
2022/06/14 13:33:55;;;;;;;6.95;1.70;;;23.00;68.10;;;;;;5048683;28;20032;-69
2022/06/14 13:36:29;;;;;;;10.00;2.35;;;23.20;67.40;;;;;;5043963;28;20028;-72
2022/06/14 13:39:11;;;;;;;4.28;1.80;;;23.30;66.80;;;;;;5049583;28;20121;-69
2022/06/14 13:42:00;;;;;;;7.30;1.40;;;23.30;67.10;;;;;;5043439;28;20320;-68
2022/06/14 13:44:46;;;;;;;3.53;1.33;;;23.50;67.50;;;;;;5045684;28;20029;-69
2022/06/14 13:47:31;;;;;;;3.72;1.48;;;23.70;66.10;;;;;;5056129;28;20177;-69
2022/06/14 13:50:05;;;;;;;5.07;1.70;;;23.50;66.00;;;;;;5063293;28;20028;-67
2022/06/14 13:52:39;;;;;;;8.95;2.40;;;23.30;66.40;;;;;;5043372;28;20052;-69
2022/06/14 13:55:28;;;;;;;5.32;1.70;;;23.30;66.40;;;;;;5043076;28;20033;-67
2022/06/14 13:58:16;;;;;;;2.55;1.45;;;23.30;66.30;;;;;;5043671;28;20085;-68
2022/06/14 14:01:00;;;;;;;4.43;1.42;;;23.50;66.80;;;;;;5029856;28;20044;-68
2022/06/14 14:03:50;;;;;;;3.10;1.52;;;23.60;66.30;;;;;;5044506;28;20025;-68
2022/06/14 14:06:27;;;;;;;4.03;1.77;;;23.60;66.50;;;;;;5045957;28;20377;-69
2022/06/14 14:09:31;;;;;;;11.25;1.95;;;23.80;66.40;;;;;;5046003;28;20105;-68
2022/06/14 14:12:14;;;;;;;6.93;1.80;;;23.90;65.70;;;;;;5055292;28;20076;-70
2022/06/14 14:15:18;;;;;;;5.22;1.50;;;24.00;65.50;;;;;;5043973;28;20092;-69
2022/06/14 14:18:18;;;;;;;3.70;1.33;;;23.90;65.90;;;;;;5038800;28;20017;-69
2022/06/14 14:21:09;;;;;;;5.20;1.90;;;24.10;65.80;;;;;;5031473;28;20316;-70
2022/06/14 14:24:08;;;;;;;9.60;2.67;;;23.90;65.80;;;;;;5028604;28;20175;-70
2022/06/14 14:26:40;;;;;;;8.73;2.40;;;23.80;68.40;;;;;;5043290;28;20021;-69
2022/06/14 14:29:32;;;;;;;3.55;1.90;;;23.60;69.40;;;;;;5042684;28;20021;-70
2022/06/14 14:32:10;;;;;;;7.63;2.13;;;23.20;69.90;;;;;;5031301;28;20272;-69